Time;durP1;ratioP1;P1;durP2;ratioP2;P2;SDS_P1;SDS_P2;PMS_P1;PMS_P2;Temp;Humidity;BMP_temperature;BMP_pressure;BME280_temperature;BME280_humidity;BME280_pressure;Samples;Min_cycle;Max_cycle;Signal;HPM_P1;HPM_P2
2021/10/18 00:01:59;;;;;;;32.55;18.75;;;7.40;99.90;;;;;;5000809;28;20108;-77
2021/10/18 00:04:26;;;;;;;34.15;20.00;;;7.40;99.90;;;;;;5001357;28;20117;-77
2021/10/18 00:06:52;;;;;;;36.88;19.55;;;7.40;99.90;;;;;;5017849;28;20029;-77
2021/10/18 00:09:18;;;;;;;35.15;18.80;;;7.40;99.90;;;;;;5017170;28;20022;-77
2021/10/18 00:11:44;;;;;;;31.33;18.58;;;7.30;99.90;;;;;;5015495;28;20061;-76
2021/10/18 00:14:09;;;;;;;32.75;19.23;;;7.30;99.90;;;;;;5003273;28;20014;-74
2021/10/18 00:16:36;;;;;;;34.15;19.00;;;7.20;99.90;;;;;;5036913;28;20041;-76
2021/10/18 00:19:02;;;;;;;33.38;18.60;;;7.20;99.90;;;;;;5019357;28;20061;-74
2021/10/18 00:21:28;;;;;;;31.73;18.10;;;7.20;99.90;;;;;;5036317;28;20029;-75
2021/10/18 00:23:54;;;;;;;31.67;17.08;;;7.10;99.90;;;;;;5006880;28;20580;-76
2021/10/18 00:26:20;;;;;;;32.92;18.05;;;7.10;99.90;;;;;;5018392;28;20062;-76
2021/10/18 00:28:45;;;;;;;34.88;19.33;;;7.00;99.90;;;;;;5019981;28;20022;-76
2021/10/18 00:31:11;;;;;;;35.15;18.58;;;7.00;99.90;;;;;;4998707;28;20432;-76
2021/10/18 00:33:36;;;;;;;30.90;17.70;;;7.10;99.90;;;;;;5015637;28;20028;-75
2021/10/18 00:36:02;;;;;;;30.23;17.67;;;7.10;99.90;;;;;;4999004;28;20036;-78
2021/10/18 00:38:28;;;;;;;34.13;19.23;;;7.10;99.90;;;;;;5016698;28;20441;-76
2021/10/18 00:40:54;;;;;;;29.30;17.02;;;7.10;99.90;;;;;;4998517;28;20040;-76
2021/10/18 00:43:19;;;;;;;25.67;16.83;;;7.00;99.90;;;;;;5016061;28;20021;-77
2021/10/18 00:45:45;;;;;;;29.08;17.13;;;7.00;99.90;;;;;;5015775;28;20359;-77
2021/10/18 00:48:10;;;;;;;27.27;16.95;;;7.00;99.90;;;;;;5015301;28;20026;-77
2021/10/18 00:50:36;;;;;;;33.58;17.42;;;7.00;99.90;;;;;;4998431;28;20032;-77
2021/10/18 00:53:02;;;;;;;33.25;18.23;;;7.00;99.90;;;;;;5020948;28;20025;-77
2021/10/18 00:55:28;;;;;;;31.52;17.80;;;7.00;99.90;;;;;;4998878;28;20030;-76
2021/10/18 00:57:54;;;;;;;29.92;17.38;;;6.90;99.90;;;;;;5031817;28;20068;-76
2021/10/18 01:00:20;;;;;;;32.42;18.00;;;7.00;99.90;;;;;;5016067;28;20486;-76
2021/10/18 01:02:46;;;;;;;26.98;16.67;;;7.00;99.90;;;;;;4997699;28;20165;-76
2021/10/18 01:05:12;;;;;;;31.00;17.17;;;7.00;99.90;;;;;;5016734;28;20102;-77
2021/10/18 01:07:38;;;;;;;28.20;17.92;;;6.90;99.90;;;;;;4998893;28;20033;-75
2021/10/18 01:10:04;;;;;;;28.52;16.40;;;7.00;99.90;;;;;;4998891;28;20022;-75
2021/10/18 01:12:30;;;;;;;27.77;17.33;;;7.00;99.90;;;;;;5013453;28;20059;-76
2021/10/18 01:14:55;;;;;;;25.63;16.40;;;7.00;99.90;;;;;;5013855;28;20026;-76
2021/10/18 01:17:21;;;;;;;24.83;15.82;;;6.90;99.90;;;;;;5000868;28;20117;-76
2021/10/18 01:19:51;;;;;;;23.75;15.05;;;7.00;99.90;;;;;;5013979;28;20030;-76
2021/10/18 01:22:17;;;;;;;24.15;15.05;;;6.90;99.90;;;;;;5014022;28;20063;-76
2021/10/18 01:24:42;;;;;;;25.20;15.93;;;6.90;99.90;;;;;;5013651;28;20498;-76
2021/10/18 01:27:08;;;;;;;26.88;16.42;;;7.00;99.90;;;;;;4995920;28;20025;-76
2021/10/18 01:29:36;;;;;;;26.23;16.30;;;7.00;99.90;;;;;;5014454;28;20076;-76
2021/10/18 01:32:04;;;;;;;24.02;16.33;;;7.00;99.90;;;;;;5014548;28;20041;-75
2021/10/18 01:34:30;;;;;;;25.25;16.63;;;7.00;99.90;;;;;;5022374;28;20029;-76
2021/10/18 01:36:58;;;;;;;25.05;17.75;;;7.00;99.90;;;;;;4995795;28;20030;-75
2021/10/18 01:39:24;;;;;;;24.35;16.65;;;7.00;99.90;;;;;;5013814;28;20048;-76
2021/10/18 01:41:50;;;;;;;23.10;15.40;;;7.00;99.90;;;;;;4996184;28;20121;-77
2021/10/18 01:44:16;;;;;;;25.73;15.60;;;6.90;99.90;;;;;;5013275;28;20029;-76
2021/10/18 01:46:42;;;;;;;24.75;15.77;;;6.90;99.90;;;;;;5013588;28;20025;-76
2021/10/18 01:49:08;;;;;;;25.27;16.77;;;6.90;99.90;;;;;;5000722;28;20022;-75
2021/10/18 01:51:34;;;;;;;25.83;16.10;;;6.90;99.90;;;;;;4984221;28;20398;-76
2021/10/18 01:54:00;;;;;;;22.60;15.45;;;6.90;99.90;;;;;;5013646;28;20037;-76
2021/10/18 01:56:26;;;;;;;25.30;16.13;;;6.90;99.90;;;;;;5012844;28;20481;-76
2021/10/18 01:58:51;;;;;;;23.48;16.05;;;6.90;99.90;;;;;;5031384;28;20013;-76
2021/10/18 02:01:17;;;;;;;23.67;15.45;;;7.00;99.90;;;;;;5040674;28;20021;-76
2021/10/18 02:03:42;;;;;;;25.35;15.55;;;7.00;99.90;;;;;;5039604;28;20022;-75
2021/10/18 02:06:10;;;;;;;25.50;16.20;;;7.00;99.90;;;;;;5021836;28;20092;-75
2021/10/18 02:08:36;;;;;;;26.25;17.15;;;7.10;99.90;;;;;;5013305;28;20014;-74
2021/10/18 02:11:02;;;;;;;23.60;16.45;;;7.10;99.90;;;;;;5023736;28;20045;-74
2021/10/18 02:13:28;;;;;;;26.45;16.85;;;7.20;99.90;;;;;;5016893;28;20026;-76
2021/10/18 02:15:54;;;;;;;24.33;15.93;;;7.10;99.90;;;;;;5013882;28;20093;-77
2021/10/18 02:18:20;;;;;;;22.48;15.20;;;7.10;99.90;;;;;;5017011;28;20377;-76
2021/10/18 02:20:46;;;;;;;24.75;16.33;;;7.00;99.90;;;;;;4995479;28;20076;-77
2021/10/18 02:23:11;;;;;;;23.85;16.10;;;7.10;99.90;;;;;;5014537;28;20018;-76
2021/10/18 02:25:37;;;;;;;25.50;17.63;;;7.10;99.90;;;;;;5017205;28;20037;-76
2021/10/18 02:28:03;;;;;;;24.30;15.82;;;7.10;99.90;;;;;;5017185;28;20030;-78
2021/10/18 02:30:28;;;;;;;24.63;16.83;;;7.10;99.90;;;;;;5036900;28;20042;-77
2021/10/18 02:32:54;;;;;;;25.67;16.10;;;7.00;99.90;;;;;;5017105;28;20427;-78
2021/10/18 02:35:19;;;;;;;23.52;16.20;;;7.10;99.90;;;;;;5016457;28;20054;-77
2021/10/18 02:37:46;;;;;;;24.40;16.77;;;7.10;99.90;;;;;;5017011;28;20037;-77
2021/10/18 02:40:11;;;;;;;24.60;15.85;;;7.10;99.90;;;;;;4998995;28;20030;-78
2021/10/18 02:42:37;;;;;;;27.35;17.08;;;7.00;99.90;;;;;;5016826;28;20032;-76
2021/10/18 02:45:04;;;;;;;31.08;18.17;;;7.10;99.90;;;;;;5017595;28;20029;-76
2021/10/18 02:47:29;;;;;;;26.10;17.20;;;7.20;99.90;;;;;;5003071;28;20029;-78
2021/10/18 02:49:55;;;;;;;23.98;15.90;;;7.30;99.90;;;;;;4996881;28;20101;-77
2021/10/18 02:52:21;;;;;;;25.00;16.48;;;7.40;99.90;;;;;;5005351;28;20030;-77
2021/10/18 02:54:46;;;;;;;23.05;15.68;;;7.40;99.90;;;;;;4998590;28;20456;-77
2021/10/18 02:57:12;;;;;;;27.05;16.63;;;7.40;99.90;;;;;;5016003;28;20037;-77
2021/10/18 02:59:37;;;;;;;26.58;16.77;;;7.40;99.90;;;;;;5015908;28;20026;-78
2021/10/18 03:02:03;;;;;;;24.77;16.85;;;7.40;99.90;;;;;;5016037;28;20083;-77
2021/10/18 03:04:28;;;;;;;27.55;16.27;;;7.40;99.90;;;;;;5016202;28;20390;-77
2021/10/18 03:06:54;;;;;;;28.95;18.25;;;7.40;99.90;;;;;;5016041;28;20385;-77
2021/10/18 03:09:19;;;;;;;28.80;17.67;;;7.50;99.90;;;;;;5016108;28;20022;-77
2021/10/18 03:11:45;;;;;;;26.73;16.23;;;7.60;99.90;;;;;;5015749;28;20038;-77
2021/10/18 03:14:10;;;;;;;26.25;16.70;;;7.80;99.90;;;;;;5015947;28;20030;-78
2021/10/18 03:16:36;;;;;;;24.27;16.27;;;8.00;99.90;;;;;;5016616;28;20117;-77
2021/10/18 03:19:02;;;;;;;27.52;17.27;;;8.00;99.90;;;;;;5016741;28;20026;-78
2021/10/18 03:21:27;;;;;;;23.65;15.77;;;8.00;99.90;;;;;;4998140;28;20028;-77
2021/10/18 03:23:53;;;;;;;25.58;17.20;;;8.10;99.90;;;;;;5008467;28;20024;-77
2021/10/18 03:26:19;;;;;;;24.70;16.58;;;8.10;99.90;;;;;;5038122;28;20026;-78
2021/10/18 03:28:45;;;;;;;26.00;16.45;;;8.00;99.90;;;;;;5039172;28;20022;-77
2021/10/18 03:31:11;;;;;;;25.90;17.08;;;7.90;99.90;;;;;;5026343;28;20034;-77
2021/10/18 03:33:38;;;;;;;25.52;16.52;;;7.80;99.90;;;;;;5004606;28;20036;-77
2021/10/18 03:36:05;;;;;;;24.75;16.08;;;7.70;99.90;;;;;;5035501;28;20034;-76
2021/10/18 03:38:31;;;;;;;26.60;17.90;;;7.60;99.90;;;;;;5035762;28;20022;-77
2021/10/18 03:40:57;;;;;;;26.95;17.20;;;7.60;99.90;;;;;;5031950;28;20030;-76
2021/10/18 03:43:23;;;;;;;25.98;16.63;;;7.60;99.90;;;;;;5004001;28;20129;-77
2021/10/18 03:45:49;;;;;;;24.90;16.30;;;7.60;99.90;;;;;;5016795;28;20026;-76
2021/10/18 03:48:14;;;;;;;29.55;16.90;;;7.50;99.90;;;;;;4998593;28;20021;-77
2021/10/18 03:50:40;;;;;;;28.15;17.40;;;7.50;99.90;;;;;;5015915;28;20381;-76
2021/10/18 03:53:06;;;;;;;26.70;15.85;;;7.60;99.90;;;;;;5016943;28;20490;-76
2021/10/18 03:55:31;;;;;;;23.70;14.77;;;7.70;99.90;;;;;;5016236;28;20022;-77
2021/10/18 03:57:57;;;;;;;25.48;15.60;;;7.80;99.90;;;;;;5017189;28;20026;-76
2021/10/18 04:00:23;;;;;;;25.45;16.08;;;7.90;99.90;;;;;;5001606;28;20033;-76
2021/10/18 04:02:48;;;;;;;26.85;16.83;;;7.80;99.90;;;;;;5021910;28;20036;-77
2021/10/18 04:05:14;;;;;;;31.52;18.35;;;7.80;99.90;;;;;;5036216;28;20078;-77
2021/10/18 04:07:44;;;;;;;30.80;19.05;;;7.80;99.90;;;;;;5035095;28;20075;-77
2021/10/18 04:10:10;;;;;;;33.22;20.27;;;7.70;99.90;;;;;;5017442;28;20022;-77
2021/10/18 04:12:36;;;;;;;32.65;20.60;;;7.70;99.90;;;;;;5015237;28;20200;-76
2021/10/18 04:15:02;;;;;;;36.00;21.08;;;7.70;99.90;;;;;;5014722;28;20026;-77
2021/10/18 04:17:27;;;;;;;30.27;17.77;;;7.80;99.90;;;;;;5014572;28;20026;-77
2021/10/18 04:19:53;;;;;;;30.90;17.98;;;7.90;99.90;;;;;;4997095;28;20026;-77
2021/10/18 04:22:18;;;;;;;33.88;19.60;;;7.90;99.90;;;;;;5013917;28;20034;-77
2021/10/18 04:24:44;;;;;;;34.50;19.42;;;7.90;99.90;;;;;;5014713;28;20381;-77
2021/10/18 04:27:09;;;;;;;30.40;18.40;;;8.00;99.90;;;;;;5014173;28;20458;-76
2021/10/18 04:29:35;;;;;;;28.90;18.25;;;8.20;99.90;;;;;;5014557;28;20548;-77
2021/10/18 04:32:01;;;;;;;30.63;17.50;;;8.20;99.90;;;;;;5014364;28;20061;-77
2021/10/18 04:34:26;;;;;;;33.75;17.75;;;8.30;99.90;;;;;;5014310;28;20088;-76
2021/10/18 04:36:54;;;;;;;31.05;18.20;;;8.40;99.90;;;;;;5014222;28;20393;-77
2021/10/18 04:39:20;;;;;;;35.35;18.73;;;8.40;99.90;;;;;;5014445;28;20030;-77
2021/10/18 04:41:46;;;;;;;42.08;21.70;;;8.40;99.90;;;;;;5014094;28;20390;-77
2021/10/18 04:44:12;;;;;;;37.70;20.52;;;8.40;99.90;;;;;;5016674;28;20018;-76
2021/10/18 04:46:37;;;;;;;40.22;21.83;;;8.30;99.90;;;;;;5019236;28;20022;-76
2021/10/18 04:49:03;;;;;;;41.03;21.83;;;8.20;99.90;;;;;;5004337;28;20022;-75
2021/10/18 04:51:29;;;;;;;40.35;21.05;;;8.10;99.90;;;;;;5004481;28;20040;-76
2021/10/18 04:53:55;;;;;;;38.17;19.98;;;8.10;99.90;;;;;;5023054;28;20030;-76
2021/10/18 04:56:20;;;;;;;40.03;21.20;;;8.00;99.90;;;;;;5020318;28;20023;-76
2021/10/18 04:58:46;;;;;;;35.05;19.35;;;8.00;99.90;;;;;;5014235;28;20462;-77
2021/10/18 05:01:12;;;;;;;43.60;20.17;;;8.10;99.90;;;;;;5014168;28;20510;-77
2021/10/18 05:03:37;;;;;;;40.55;21.30;;;8.10;99.90;;;;;;5015711;28;20029;-77
2021/10/18 05:06:03;;;;;;;39.78;20.30;;;8.00;99.90;;;;;;5016310;28;20026;-77
2021/10/18 05:08:28;;;;;;;44.60;20.48;;;8.00;99.90;;;;;;5014741;28;20040;-77
2021/10/18 05:10:54;;;;;;;36.63;19.00;;;8.00;99.90;;;;;;5013557;28;20026;-76
2021/10/18 05:13:19;;;;;;;38.88;20.70;;;8.10;99.90;;;;;;5014147;28;20017;-76
2021/10/18 05:15:48;;;;;;;41.28;21.65;;;8.10;99.90;;;;;;5013780;28;20390;-78
2021/10/18 05:18:14;;;;;;;40.50;21.83;;;8.30;99.90;;;;;;5013217;28;20018;-75
2021/10/18 05:20:40;;;;;;;37.60;19.33;;;8.30;99.90;;;;;;5012711;28;20401;-76
2021/10/18 05:23:05;;;;;;;39.17;20.25;;;8.30;99.90;;;;;;4995562;28;20061;-76
2021/10/18 05:25:31;;;;;;;41.30;19.75;;;8.30;99.90;;;;;;4996799;28;20123;-77
2021/10/18 05:27:57;;;;;;;38.83;21.00;;;8.20;99.90;;;;;;5012673;28;20041;-76
2021/10/18 05:30:26;;;;;;;41.10;21.00;;;8.20;99.90;;;;;;5012718;28;20032;-77
2021/10/18 05:32:53;;;;;;;35.80;19.77;;;8.20;99.90;;;;;;5013594;28;20029;-76
2021/10/18 05:35:19;;;;;;;40.80;21.40;;;8.20;99.90;;;;;;5013721;28;20037;-77
2021/10/18 05:37:46;;;;;;;39.95;19.52;;;8.20;99.90;;;;;;5013683;28;20057;-77
2021/10/18 05:40:13;;;;;;;37.08;21.25;;;8.20;99.90;;;;;;5014005;28;20049;-78
2021/10/18 05:42:39;;;;;;;37.90;20.35;;;8.20;99.90;;;;;;5004251;28;20144;-78
2021/10/18 05:45:05;;;;;;;44.15;21.15;;;8.20;99.90;;;;;;5013802;28;20138;-77
2021/10/18 05:47:31;;;;;;;35.05;19.05;;;8.20;99.90;;;;;;4995494;28;20033;-76
2021/10/18 05:49:59;;;;;;;41.58;21.48;;;8.30;99.90;;;;;;5012857;28;20030;-77
2021/10/18 05:52:26;;;;;;;39.58;22.00;;;8.30;99.90;;;;;;4995180;28;20065;-78
2021/10/18 05:54:52;;;;;;;42.42;21.20;;;8.40;99.90;;;;;;4995708;28;20088;-77
2021/10/18 05:57:18;;;;;;;42.25;21.27;;;8.60;99.90;;;;;;5012364;28;20441;-77
2021/10/18 05:59:43;;;;;;;41.08;21.85;;;8.60;99.90;;;;;;4994649;28;20029;-78
2021/10/18 06:02:09;;;;;;;40.55;20.10;;;8.70;99.90;;;;;;5012881;28;20030;-76
2021/10/18 06:04:37;;;;;;;42.22;20.70;;;8.60;99.90;;;;;;4995263;28;20137;-76
2021/10/18 06:07:03;;;;;;;41.30;21.60;;;8.60;99.90;;;;;;5013301;28;20487;-76
2021/10/18 06:09:29;;;;;;;39.08;21.38;;;8.70;99.90;;;;;;5026952;28;20069;-75
2021/10/18 06:11:54;;;;;;;42.47;21.13;;;8.70;99.90;;;;;;5020045;28;20033;-76
2021/10/18 06:14:20;;;;;;;37.25;18.80;;;8.80;99.90;;;;;;5012580;28;20029;-77
2021/10/18 06:16:45;;;;;;;40.75;20.98;;;8.80;99.90;;;;;;4995084;28;20113;-76
2021/10/18 06:19:11;;;;;;;37.28;20.55;;;8.80;99.90;;;;;;5012331;28;20393;-78
2021/10/18 06:21:36;;;;;;;36.08;20.13;;;8.90;99.90;;;;;;5013069;28;20038;-77
2021/10/18 06:24:02;;;;;;;35.75;20.17;;;8.80;99.90;;;;;;5012807;28;20047;-77
2021/10/18 06:26:28;;;;;;;39.75;21.27;;;8.80;99.90;;;;;;4996268;28;20109;-77
2021/10/18 06:28:53;;;;;;;37.42;20.85;;;8.80;99.90;;;;;;4995073;28;20037;-77
2021/10/18 06:31:19;;;;;;;39.60;20.23;;;8.90;99.90;;;;;;5013748;28;20073;-77
2021/10/18 06:33:45;;;;;;;41.22;21.83;;;9.00;99.90;;;;;;5014255;28;20038;-77
2021/10/18 06:36:11;;;;;;;50.55;22.98;;;9.00;99.90;;;;;;5013313;28;20033;-77
2021/10/18 06:38:37;;;;;;;41.65;21.52;;;9.00;99.90;;;;;;5012918;28;20033;-78
2021/10/18 06:41:02;;;;;;;41.30;21.65;;;8.90;99.90;;;;;;5013330;28;20018;-77
2021/10/18 06:43:28;;;;;;;33.58;20.63;;;8.90;99.90;;;;;;5016818;28;20037;-78
2021/10/18 06:45:54;;;;;;;38.10;20.33;;;8.80;99.90;;;;;;4996503;28;20125;-78
2021/10/18 06:48:19;;;;;;;39.05;22.13;;;8.80;99.90;;;;;;4996064;28;20509;-78
2021/10/18 06:50:46;;;;;;;37.30;20.23;;;8.90;99.90;;;;;;5013880;28;20026;-76
2021/10/18 06:53:21;;;;;;;34.30;20.88;;;9.10;99.90;;;;;;5016053;28;20046;-78
2021/10/18 06:55:47;;;;;;;34.60;19.55;;;9.10;99.90;;;;;;5032722;28;20017;-76
2021/10/18 06:58:12;;;;;;;36.92;20.67;;;9.30;99.90;;;;;;5017766;28;20057;-75
2021/10/18 07:00:38;;;;;;;29.10;19.08;;;9.30;99.90;;;;;;5018225;28;20026;-76
2021/10/18 07:03:04;;;;;;;35.15;19.17;;;9.40;99.90;;;;;;5012385;28;20041;-76
2021/10/18 07:05:30;;;;;;;34.03;18.92;;;9.40;99.90;;;;;;5013908;28;20037;-75
2021/10/18 07:07:56;;;;;;;30.30;19.08;;;9.50;99.90;;;;;;4996018;28;20032;-76
2021/10/18 07:10:21;;;;;;;35.17;18.73;;;9.60;99.90;;;;;;5013850;28;20030;-76
2021/10/18 07:12:47;;;;;;;29.10;17.48;;;9.70;99.90;;;;;;5015866;28;20026;-76
2021/10/18 07:15:13;;;;;;;31.90;18.35;;;9.70;99.90;;;;;;5015485;28;20513;-76
2021/10/18 07:17:38;;;;;;;32.47;18.23;;;9.70;99.90;;;;;;4993726;28;20057;-76
2021/10/18 07:20:06;;;;;;;30.70;18.88;;;9.60;99.90;;;;;;4998360;28;20026;-76
2021/10/18 07:22:43;;;;;;;29.52;18.95;;;9.60;99.90;;;;;;5016096;28;20030;-76
2021/10/18 07:25:10;;;;;;;30.95;17.33;;;9.80;99.90;;;;;;4998564;28;20112;-76
2021/10/18 07:27:36;;;;;;;34.20;18.13;;;9.90;99.90;;;;;;4997959;28;20026;-75
2021/10/18 07:30:02;;;;;;;30.30;18.10;;;10.00;99.90;;;;;;5017838;28;20025;-76
2021/10/18 07:32:28;;;;;;;25.33;16.95;;;9.90;99.90;;;;;;5017917;28;20038;-76
2021/10/18 07:34:56;;;;;;;27.95;17.85;;;10.00;99.90;;;;;;5020311;28;20034;-76
2021/10/18 07:37:26;;;;;;;30.52;19.48;;;10.10;99.90;;;;;;5037997;28;20022;-76
2021/10/18 07:39:52;;;;;;;33.40;18.98;;;10.20;99.90;;;;;;5030665;28;20056;-76
2021/10/18 07:42:18;;;;;;;31.52;18.75;;;10.10;99.90;;;;;;5024297;28;20038;-76
2021/10/18 07:44:43;;;;;;;30.35;18.33;;;9.90;99.90;;;;;;5019993;28;20022;-75
2021/10/18 07:47:09;;;;;;;31.00;17.77;;;9.80;99.90;;;;;;5001380;28;20061;-75
2021/10/18 07:49:36;;;;;;;27.77;18.05;;;9.80;99.90;;;;;;5001857;28;20077;-77
2021/10/18 07:52:04;;;;;;;21.27;15.57;;;9.70;99.90;;;;;;5018999;28;20026;-76
2021/10/18 07:54:30;;;;;;;20.40;16.85;;;9.70;99.90;;;;;;5000146;28;20026;-77
2021/10/18 07:56:56;;;;;;;20.27;16.05;;;9.70;99.90;;;;;;4998871;28;20034;-77
2021/10/18 07:59:22;;;;;;;20.65;15.95;;;9.70;99.90;;;;;;5016421;28;20036;-76
2021/10/18 08:01:47;;;;;;;19.70;15.48;;;9.70;99.90;;;;;;5015823;28;20511;-76
2021/10/18 08:04:13;;;;;;;22.20;16.77;;;9.80;99.90;;;;;;5016900;28;20505;-77
2021/10/18 08:06:39;;;;;;;24.38;17.02;;;10.10;99.90;;;;;;5015888;28;20022;-77
2021/10/18 08:09:07;;;;;;;24.83;17.08;;;10.20;99.90;;;;;;5016271;28;20073;-76
2021/10/18 08:11:33;;;;;;;23.98;17.20;;;10.10;99.90;;;;;;4995862;28;20067;-76
2021/10/18 08:13:59;;;;;;;23.60;17.30;;;10.20;99.90;;;;;;5007280;28;20030;-76
2021/10/18 08:16:24;;;;;;;23.65;17.10;;;10.10;99.90;;;;;;5001550;28;20553;-76
2021/10/18 08:18:51;;;;;;;22.20;17.45;;;10.20;99.90;;;;;;5015237;28;20030;-76
2021/10/18 08:21:16;;;;;;;23.65;17.80;;;10.20;99.90;;;;;;5014900;28;20049;-76
2021/10/18 08:23:42;;;;;;;22.38;16.88;;;10.50;99.90;;;;;;5018672;28;20064;-75
2021/10/18 08:26:09;;;;;;;23.95;17.52;;;10.50;99.90;;;;;;5018746;28;20025;-75
2021/10/18 08:28:35;;;;;;;25.58;18.27;;;10.20;99.90;;;;;;5046839;23;20072;-74
2021/10/18 08:31:00;;;;;;;23.83;16.80;;;10.00;99.90;;;;;;5021426;28;20081;-74
2021/10/18 08:33:26;;;;;;;27.58;19.20;;;10.00;99.90;;;;;;5019961;28;20030;-74
2021/10/18 08:35:52;;;;;;;25.33;18.70;;;10.10;99.90;;;;;;5031678;28;20037;-73
2021/10/18 08:38:46;;;;;;;29.45;19.48;;;10.10;99.90;;;;;;5029469;28;20052;-73
2021/10/18 08:41:18;;;;;;;25.42;18.00;;;10.10;99.90;;;;;;5054007;28;20034;-73
2021/10/18 08:46:22;;;;;;;27.30;18.60;;;10.10;99.90;;;;;;5045659;28;20040;-73
2021/10/18 08:48:51;;;;;;;31.25;19.70;;;10.10;99.90;;;;;;5036502;28;20053;-76
2021/10/18 08:51:16;;;;;;;25.75;18.27;;;10.00;99.90;;;;;;5036346;28;20029;-74
2021/10/18 08:53:42;;;;;;;25.73;18.60;;;10.00;99.90;;;;;;5031459;28;20033;-75
2021/10/18 08:56:07;;;;;;;25.73;18.67;;;10.00;99.90;;;;;;5028492;28;20026;-74
2021/10/18 08:58:33;;;;;;;28.33;19.67;;;10.00;99.90;;;;;;5023809;28;20057;-74
2021/10/18 09:00:58;;;;;;;22.60;17.55;;;10.00;99.90;;;;;;5026646;28;20449;-74
2021/10/18 09:03:28;;;;;;;27.80;19.15;;;10.00;99.90;;;;;;5036368;28;20076;-75
2021/10/18 09:06:14;;;;;;;23.25;17.65;;;10.00;99.90;;;;;;5041380;28;20539;-77
2021/10/18 09:08:54;;;;;;;24.80;17.40;;;10.00;99.90;;;;;;5039482;28;20439;-74
2021/10/18 09:11:20;;;;;;;28.23;19.80;;;10.10;99.90;;;;;;5038556;28;20083;-75
2021/10/18 09:13:51;;;;;;;25.35;19.10;;;10.20;99.90;;;;;;5035832;28;20026;-76
2021/10/18 09:16:34;;;;;;;24.88;18.55;;;10.20;99.90;;;;;;5035793;28;20108;-75
2021/10/18 09:19:06;;;;;;;28.77;19.02;;;10.20;99.90;;;;;;5029498;28;20104;-75
2021/10/18 09:21:58;;;;;;;28.02;19.55;;;10.20;99.90;;;;;;5033994;28;20033;-74
2021/10/18 09:24:30;;;;;;;27.30;19.85;;;10.20;99.90;;;;;;5028537;28;20068;-75
2021/10/18 09:26:58;;;;;;;25.00;19.27;;;10.20;99.90;;;;;;5035633;28;20025;-75
2021/10/18 09:29:54;;;;;;;26.25;19.27;;;10.40;99.90;;;;;;5014984;28;20044;-76
2021/10/18 09:32:26;;;;;;;25.27;19.75;;;10.80;99.90;;;;;;5023738;28;20048;-75
2021/10/18 09:35:07;;;;;;;26.08;19.08;;;11.10;99.90;;;;;;5032832;28;20037;-74
2021/10/18 09:37:44;;;;;;;25.48;18.90;;;10.70;99.90;;;;;;5033805;28;20170;-75
2021/10/18 09:40:29;;;;;;;25.25;19.48;;;10.50;99.90;;;;;;5034156;28;20037;-75
2021/10/18 10:56:27;;;;;;;19.42;16.27;;;12.30;99.90;;;;;;5034240;28;20021;-78
2021/10/18 10:59:11;;;;;;;18.80;16.13;;;12.70;99.90;;;;;;5049204;28;20102;-79
2021/10/18 11:01:43;;;;;;;20.13;16.63;;;13.50;99.90;;;;;;5035242;28;20044;-80
2021/10/18 11:04:29;;;;;;;17.23;15.25;;;13.80;99.90;;;;;;5055841;28;20064;-79
2021/10/18 11:06:55;;;;;;;21.70;16.05;;;13.80;99.90;;;;;;5044874;28;20034;-82
2021/10/18 11:09:50;;;;;;;21.88;16.60;;;13.50;99.90;;;;;;5057188;28;20060;-82
2021/10/18 11:12:42;;;;;;;19.65;16.48;;;13.80;99.90;;;;;;5057560;28;20026;-79
2021/10/18 11:15:25;;;;;;;20.25;16.80;;;13.70;99.90;;;;;;5039636;28;20025;-81
2021/10/18 11:17:55;;;;;;;19.73;15.93;;;13.50;99.90;;;;;;5052897;28;20021;-82
2021/10/18 11:20:23;;;;;;;20.73;17.42;;;13.00;99.90;;;;;;5049153;28;20408;-80
2021/10/18 11:23:04;;;;;;;23.17;16.38;;;13.20;99.90;;;;;;5050190;28;20036;-81
2021/10/18 11:25:38;;;;;;;21.20;17.58;;;13.30;99.90;;;;;;5050548;28;20497;-80
2021/10/18 11:28:07;;;;;;;20.85;16.10;;;13.00;99.90;;;;;;5046165;28;20489;-77
2021/10/18 11:30:34;;;;;;;19.20;17.17;;;12.70;99.90;;;;;;5055212;28;20022;-80
2021/10/18 11:33:04;;;;;;;22.88;17.92;;;12.60;99.90;;;;;;5049098;28;20036;-82
2021/10/18 11:35:32;;;;;;;22.15;18.25;;;12.80;99.90;;;;;;5049487;28;20032;-81
2021/10/18 11:38:09;;;;;;;18.75;16.30;;;12.90;99.90;;;;;;5053210;28;20029;-80
2021/10/18 11:40:50;;;;;;;21.85;17.60;;;12.90;99.90;;;;;;5056815;28;20025;-79
2021/10/18 11:43:19;;;;;;;22.80;16.70;;;13.00;99.90;;;;;;5051270;28;20049;-81
2021/10/18 11:45:47;;;;;;;23.23;17.77;;;12.90;99.90;;;;;;5055515;28;20537;-81
2021/10/18 11:48:17;;;;;;;22.65;17.52;;;12.90;99.90;;;;;;5057298;28;20001;-80
2021/10/18 11:50:44;;;;;;;22.85;17.88;;;12.70;99.90;;;;;;5056427;28;20025;-80
2021/10/18 11:53:24;;;;;;;20.75;16.63;;;12.80;99.90;;;;;;5058314;28;20028;-81
2021/10/18 11:55:55;;;;;;;21.35;16.02;;;12.90;99.90;;;;;;5052790;28;20029;-80
2021/10/18 11:58:23;;;;;;;20.70;16.45;;;12.70;99.90;;;;;;5031195;28;20021;-80
2021/10/18 12:00:59;;;;;;;22.30;16.65;;;12.80;99.90;;;;;;5048434;28;20029;-75
2021/10/18 12:03:25;;;;;;;24.35;16.92;;;12.70;99.90;;;;;;5046329;28;20029;-76
2021/10/18 12:05:53;;;;;;;21.58;16.95;;;12.50;99.90;;;;;;5046239;28;20041;-77
2021/10/18 12:08:21;;;;;;;18.90;15.73;;;12.80;99.90;;;;;;5052512;28;20014;-76
2021/10/18 12:10:49;;;;;;;21.70;17.05;;;12.80;99.90;;;;;;5048983;28;20022;-76
2021/10/18 12:13:44;;;;;;;20.52;17.13;;;12.70;99.90;;;;;;5053365;28;20034;-77
2021/10/18 12:16:22;;;;;;;19.85;15.98;;;13.00;99.90;;;;;;5039073;28;20092;-76
2021/10/18 12:18:52;;;;;;;24.42;17.63;;;12.80;99.90;;;;;;5051480;28;20021;-76
2021/10/18 12:21:23;;;;;;;20.58;16.85;;;13.00;99.90;;;;;;5053108;28;20049;-76
2021/10/18 12:23:56;;;;;;;21.30;16.25;;;13.20;99.90;;;;;;5049766;28;20032;-77
2021/10/18 12:26:24;;;;;;;22.42;16.10;;;13.20;99.90;;;;;;5053351;28;20022;-76
2021/10/18 12:28:55;;;;;;;28.65;17.13;;;13.30;99.90;;;;;;5054241;28;20040;-76
2021/10/18 12:31:34;;;;;;;;;;;13.50;99.90;;;;;;5054313;28;20018;-77
2021/10/18 12:34:05;;;;;;;25.23;16.50;;;13.20;99.90;;;;;;5053551;28;19959;-77
2021/10/18 12:36:32;;;;;;;22.80;16.63;;;13.30;99.90;;;;;;5033510;28;20049;-76
2021/10/18 12:39:00;;;;;;;20.58;16.25;;;13.40;99.90;;;;;;5043627;28;20045;-77
2021/10/18 12:41:25;;;;;;;16.70;14.93;;;13.60;99.90;;;;;;5042952;28;20089;-78
2021/10/18 12:43:51;;;;;;;22.13;16.30;;;13.30;99.90;;;;;;5032551;28;20022;-76
2021/10/18 12:46:26;;;;;;;19.95;16.23;;;13.60;99.90;;;;;;5052619;28;20020;-78
2021/10/18 12:49:00;;;;;;;17.38;14.10;;;13.60;99.90;;;;;;5041801;28;20163;-78
2021/10/18 12:51:41;;;;;;;16.73;14.50;;;13.90;99.90;;;;;;5029766;28;20030;-77
2021/10/18 12:54:22;;;;;;;17.77;14.38;;;14.10;99.90;;;;;;5020850;28;20022;-78
2021/10/18 12:57:06;;;;;;;21.08;15.85;;;14.20;99.90;;;;;;5027611;28;20100;-78
2021/10/18 12:59:36;;;;;;;22.63;15.98;;;14.20;99.90;;;;;;5042061;28;20084;-78
2021/10/18 13:02:19;;;;;;;19.00;15.65;;;13.90;99.90;;;;;;5046338;28;20029;-77
2021/10/18 13:05:21;;;;;;;20.67;14.93;;;13.80;99.90;;;;;;5049545;28;20018;-78
2021/10/18 13:07:52;;;;;;;19.58;15.25;;;13.90;99.90;;;;;;4963340;28;20039;-77
2021/10/18 13:10:20;;;;;;;18.48;14.93;;;14.20;99.90;;;;;;5034817;28;20099;-76
2021/10/18 13:12:46;;;;;;;18.85;14.32;;;14.30;99.90;;;;;;5050892;28;20036;-76
2021/10/18 13:15:15;;;;;;;17.65;14.77;;;14.30;99.90;;;;;;5049285;28;20120;-76
2021/10/18 13:17:41;;;;;;;20.35;13.75;;;14.00;99.90;;;;;;5041722;28;20107;-77
2021/10/18 13:20:08;;;;;;;21.30;14.43;;;13.80;99.90;;;;;;5048846;28;20024;-77
2021/10/18 13:22:35;;;;;;;19.02;13.90;;;13.80;99.90;;;;;;5066118;28;20045;-77
2021/10/18 13:25:00;;;;;;;17.58;13.82;;;13.90;99.90;;;;;;5060679;28;20021;-75
2021/10/18 13:27:26;;;;;;;16.17;14.23;;;14.10;99.90;;;;;;5044794;28;20026;-76
2021/10/18 13:29:52;;;;;;;16.65;14.15;;;14.10;99.90;;;;;;5045517;28;20041;-76
2021/10/18 13:32:18;;;;;;;17.67;14.93;;;14.00;99.90;;;;;;5025305;28;20475;-77
2021/10/18 13:34:44;;;;;;;19.35;13.57;;;14.10;99.90;;;;;;5042135;28;20021;-78
2021/10/18 13:37:11;;;;;;;16.20;14.05;;;14.30;99.90;;;;;;5041167;28;20029;-79
2021/10/18 13:39:41;;;;;;;16.45;14.57;;;14.50;99.90;;;;;;5048854;28;20018;-76
2021/10/18 13:42:09;;;;;;;16.45;14.38;;;14.60;99.90;;;;;;5049615;28;20049;-76
2021/10/18 13:44:36;;;;;;;16.67;14.35;;;14.80;99.90;;;;;;5049371;28;20025;-77
2021/10/18 13:47:03;;;;;;;16.42;14.63;;;14.70;99.90;;;;;;5046727;28;20041;-77
2021/10/18 13:49:29;;;;;;;18.77;14.75;;;14.70;99.90;;;;;;5047355;28;20033;-76
2021/10/18 13:51:54;;;;;;;17.40;14.77;;;14.60;99.90;;;;;;5047453;28;20429;-75
2021/10/18 13:54:20;;;;;;;18.27;14.40;;;14.50;99.90;;;;;;5042096;28;20048;-79